Brisbane - nearby METAR Reports

YBBN - Brisbane Intl Ar, Australia
Distance from station: NNE 11km
Updated: 07/04/2020 17:30
Mostly cloudy
Mostly cloudy
 Wind from SE
Wind: SE 17 km/h
Temperature: 24°C
Dew Point: 16°C
Humidity: 61%
Barometer: 1015 hPa
Clouds: Mostly cloudy
Visibility: 10 km
Cloud details: Few Clouds 1067 m
Mostly cloudy 2530 m
2020/04/07 07:30 YBBN 070730Z 13009KT 9999 FEW035 BKN083 24/16 Q1015 NOSIG
YAMB - Amberley, Australia
Distance from station: WSW 42km
Updated: 07/04/2020 17:30
Clear
Clear
 Wind from SSE
Wind: SSE 13 km/h
Temperature: 26°C
Dew Point: 12°C
Humidity: 42%
Barometer: 1014 hPa
Summary: Clear
Visibility: greater than 10 km
2020/04/07 07:30 YAMB 070730Z 16007KT CAVOK 26/12 Q1014 NOSIG
 
YBCG - Coolangatta Aws, Australia
Distance from station: SSE 102km
Updated: 07/04/2020 17:30
Overcast
Overcast
 Wind from S
Wind: S 19 km/h
Temperature: 21°C
Dew Point: 16°C
Humidity: 73%
Barometer: 1016 hPa
Clouds: Overcast
Visibility: 10 km
Cloud details: Partly cloudy 1433 m
Mostly cloudy 1615 m
Overcast 2012 m
2020/04/07 07:30 YBCG 070730Z AUTO 18010KT 9999 // SCT047 BKN053 OVC066 21/16 Q1016

Cumulus logo AWN logo WOW logo PWS logo WU logo AWEKAS logo